createdAt,value
2018-01-10T00:00:31.146Z,1015.87
2018-01-10T00:01:31.473Z,1015.87
2018-01-10T00:02:31.813Z,1015.86
2018-01-10T00:03:31.144Z,1015.86
2018-01-10T00:04:31.457Z,1015.85
2018-01-10T00:05:31.747Z,1015.9
2018-01-10T00:06:31.128Z,1015.91
2018-01-10T00:07:31.507Z,1015.93
2018-01-10T00:08:31.804Z,1015.91
2018-01-10T00:09:31.251Z,1015.96
2018-01-10T00:10:31.684Z,1015.98
2018-01-10T00:11:31.020Z,1016.01
2018-01-10T00:12:31.219Z,1016.02
2018-01-10T00:13:31.399Z,1016.04
2018-01-10T00:14:31.671Z,1016.02
2018-01-10T00:15:30.972Z,1016.01
2018-01-10T00:16:31.700Z,1015.99
2018-01-10T00:17:31.973Z,1016.01
2018-01-10T00:18:31.378Z,1016
2018-01-10T00:19:31.523Z,1016.04
2018-01-10T00:20:31.877Z,1016.08
2018-01-10T00:21:31.035Z,1016.09
2018-01-10T00:22:31.229Z,1016.14
2018-01-10T00:23:31.632Z,1016.11
2018-01-10T00:24:31.890Z,1016.09
2018-01-10T00:25:31.065Z,1016.1
2018-01-10T00:26:31.222Z,1016.09
2018-01-10T00:27:31.409Z,1016.14
2018-01-10T00:28:31.564Z,1016.17
2018-01-10T00:29:31.802Z,1016.17
2018-01-10T00:30:31.230Z,1016.15
2018-01-10T00:31:31.406Z,1016.19
2018-01-10T00:32:31.684Z,1016.16
2018-01-10T00:33:31.020Z,1016.19
2018-01-10T00:34:31.334Z,1016.19
2018-01-10T00:35:31.664Z,1016.16
2018-01-10T00:38:31.923Z,1016.16
2018-01-10T00:39:31.341Z,1016.18
2018-01-10T00:40:31.649Z,1016.14
2018-01-10T00:41:31.153Z,1016.18
2018-01-10T00:42:31.454Z,1016.19
2018-01-10T00:43:31.844Z,1016.13
2018-01-10T00:44:31.100Z,1016.13
2018-01-10T00:45:31.365Z,1016.11
2018-01-10T00:46:30.698Z,1016.1
2018-01-10T00:47:30.992Z,1016.12
2018-01-10T00:48:31.204Z,1016.13
2018-01-10T00:49:30.444Z,1016.1
2018-01-10T00:50:30.668Z,1016.07
2018-01-10T00:51:31.390Z,1016.02
2018-01-10T00:52:30.885Z,1016.06
2018-01-10T00:53:31.216Z,1016.05
2018-01-10T00:54:30.547Z,1015.98
2018-01-10T00:55:30.872Z,1015.98
2018-01-10T00:56:31.128Z,1015.95
2018-01-10T00:57:30.413Z,1016.02
2018-01-10T00:58:30.720Z,1015.99
2018-01-10T00:59:31.073Z,1015.96
2018-01-10T01:00:31.297Z,1015.95
2018-01-10T01:01:30.493Z,1015.98
2018-01-10T01:02:30.842Z,1015.94
2018-01-10T01:03:30.451Z,1015.95
2018-01-10T01:04:30.548Z,1015.94
2018-01-10T01:05:30.797Z,1015.94
2018-01-10T01:06:31.107Z,1015.96
2018-01-10T01:07:30.506Z,1015.97
2018-01-10T01:08:30.677Z,1015.98
2018-01-10T01:09:31.012Z,1015.97
2018-01-10T01:10:31.238Z,1015.98
2018-01-10T01:11:30.460Z,1015.96
2018-01-10T01:12:30.614Z,1016
2018-01-10T01:13:30.776Z,1016
2018-01-10T01:14:31.360Z,1015.96
2018-01-10T01:15:30.776Z,1016.02
2018-01-10T01:16:31.165Z,1016.04
2018-01-10T01:17:30.523Z,1016.02
2018-01-10T01:18:30.929Z,1016.02
2018-01-10T01:19:30.444Z,1016.03
2018-01-10T01:20:30.989Z,1016.04
2018-01-10T01:21:30.481Z,1016.04
2018-01-10T01:22:30.810Z,1016.06
2018-01-10T01:23:30.071Z,1016.03
2018-01-10T01:24:30.164Z,1016.04
2018-01-10T01:25:30.436Z,1016.05
2018-01-10T01:26:30.499Z,1016.06
2018-01-10T01:27:30.729Z,1016.05
2018-01-10T01:28:31.034Z,1016.05
2018-01-10T01:29:30.342Z,1016.02
2018-01-10T01:30:30.580Z,1016
2018-01-10T01:31:30.785Z,1015.96
2018-01-10T01:32:30.973Z,1015.95
2018-01-10T01:33:30.246Z,1015.96
2018-01-10T01:34:30.516Z,1015.93
2018-01-10T01:35:30.678Z,1015.88
2018-01-10T01:36:30.134Z,1015.84
2018-01-10T01:37:30.333Z,1015.83
2018-01-10T01:38:30.482Z,1015.79
2018-01-10T01:39:30.730Z,1015.79
2018-01-10T01:40:30.200Z,1015.77
2018-01-10T01:41:30.438Z,1015.8
2018-01-10T01:42:30.687Z,1015.84
2018-01-10T01:43:30.944Z,1015.82
2018-01-10T01:44:30.319Z,1015.8
2018-01-10T01:45:30.581Z,1015.85
2018-01-10T01:46:30.802Z,1015.84
2018-01-10T01:47:30.174Z,1015.8
2018-01-10T01:48:30.488Z,1015.83
2018-01-10T01:49:30.748Z,1015.8
2018-01-10T01:50:30.896Z,1015.69
2018-01-10T01:51:31.088Z,1015.69
2018-01-10T01:52:30.512Z,1015.64
2018-01-10T01:53:31.141Z,1015.61
2018-01-10T01:54:30.401Z,1015.62
2018-01-10T01:55:30.689Z,1015.66
2018-01-10T01:56:30.861Z,1015.57
2018-01-10T01:57:31.036Z,1015.52
2018-01-10T01:58:30.417Z,1015.5
2018-01-10T01:59:30.664Z,1015.59
2018-01-10T02:00:30.865Z,1015.61
2018-01-10T02:01:31.082Z,1015.59
2018-01-10T02:02:30.373Z,1015.63
2018-01-10T02:03:30.585Z,1015.6
2018-01-10T02:04:30.969Z,1015.63
2018-01-10T02:05:30.324Z,1015.65
2018-01-10T02:06:30.513Z,1015.62
2018-01-10T02:07:30.789Z,1015.62
2018-01-10T02:08:31.113Z,1015.64
2018-01-10T02:09:30.698Z,1015.63
2018-01-10T02:10:31.469Z,1015.62
2018-01-10T02:13:41.702Z,1015.66
2018-01-10T02:14:31.013Z,1015.68
2018-01-10T02:15:30.268Z,1015.69
2018-01-10T02:16:30.438Z,1015.66
2018-01-10T02:17:30.713Z,1015.7
2018-01-10T02:18:30.985Z,1015.67
2018-01-10T02:19:30.868Z,1015.7
2018-01-10T02:20:31.289Z,1015.74
2018-01-10T02:21:31.410Z,1015.71
2018-01-10T02:22:30.921Z,1015.67
2018-01-10T02:23:32.805Z,1015.71
2018-01-10T02:24:31.152Z,1015.75
2018-01-10T02:25:31.274Z,1015.67
2018-01-10T02:26:31.147Z,1015.7
2018-01-10T02:27:31.359Z,1015.7
2018-01-10T02:28:31.579Z,1015.7
2018-01-10T02:29:30.932Z,1015.69
2018-01-10T02:30:31.168Z,1015.68
2018-01-10T02:31:31.632Z,1015.7
2018-01-10T02:32:31.371Z,1015.71
2018-01-10T02:33:32.647Z,1015.71
2018-01-10T02:34:30.964Z,1015.68
2018-01-10T02:35:30.859Z,1015.66
2018-01-10T02:36:31.074Z,1015.71
2018-01-10T02:37:31.070Z,1015.67
2018-01-10T02:38:31.341Z,1015.68
2018-01-10T02:39:30.830Z,1015.69
2018-01-10T02:40:31.241Z,1015.68
2018-01-10T02:41:31.066Z,1015.68
2018-01-10T02:42:31.422Z,1015.67
2018-01-10T02:43:30.736Z,1015.66
2018-01-10T02:44:31.058Z,1015.67
2018-01-10T02:45:31.343Z,1015.67
2018-01-10T02:46:31.643Z,1015.67
2018-01-10T02:47:32.768Z,1015.63
2018-01-10T02:48:31.163Z,1015.61
2018-01-10T02:49:30.566Z,1015.6
2018-01-10T02:50:30.873Z,1015.67
2018-01-10T02:51:31.296Z,1015.64
2018-01-10T02:52:30.773Z,1015.63
2018-01-10T02:53:31.115Z,1015.62
2018-01-10T02:54:31.643Z,1015.64
2018-01-10T02:55:31.483Z,1015.66
2018-01-10T02:56:30.825Z,1015.65
2018-01-10T02:57:31.348Z,1015.64
2018-01-10T02:58:30.647Z,1015.68
2018-01-10T02:59:30.629Z,1015.7
2018-01-10T03:00:30.946Z,1015.66
2018-01-10T03:01:31.391Z,1015.67
2018-01-10T03:02:31.072Z,1015.65
2018-01-10T03:03:31.328Z,1015.67
2018-01-10T03:04:31.165Z,1015.7
2018-01-10T03:05:31.325Z,1015.72
2018-01-10T03:06:31.127Z,1015.72
2018-01-10T03:07:31.493Z,1015.7
2018-01-10T03:08:30.717Z,1015.7
2018-01-10T03:09:31.111Z,1015.68
2018-01-10T03:10:31.499Z,1015.68
2018-01-10T03:11:30.855Z,1015.73
2018-01-10T03:12:31.091Z,1015.73
2018-01-10T03:13:31.575Z,1015.72
2018-01-10T03:14:31.065Z,1015.7
2018-01-10T03:15:31.523Z,1015.72
2018-01-10T03:16:30.711Z,1015.73
2018-01-10T03:17:31.192Z,1015.7
2018-01-10T03:18:31.337Z,1015.71
2018-01-10T03:19:30.394Z,1015.72
2018-01-10T03:20:31.071Z,1015.7
2018-01-10T03:21:30.282Z,1015.69
2018-01-10T03:22:30.673Z,1015.69
2018-01-10T03:23:31.150Z,1015.7
2018-01-10T03:24:30.731Z,1015.66
2018-01-10T03:25:31.271Z,1015.73
2018-01-10T03:26:31.255Z,1015.73
2018-01-10T03:27:31.042Z,1015.72
2018-01-10T03:28:30.318Z,1015.69
2018-01-10T03:29:30.645Z,1015.68
2018-01-10T03:30:30.777Z,1015.64
2018-01-10T03:31:31.030Z,1015.63
2018-01-10T03:32:30.364Z,1015.64
2018-01-10T03:33:30.969Z,1015.64
2018-01-10T03:34:30.360Z,1015.61
2018-01-10T03:35:30.691Z,1015.63
2018-01-10T03:36:30.671Z,1015.67
2018-01-10T03:37:30.952Z,1015.64
2018-01-10T03:38:31.076Z,1015.62
2018-01-10T03:39:30.398Z,1015.6
2018-01-10T03:40:30.358Z,1015.55
2018-01-10T03:41:30.983Z,1015.62
2018-01-10T03:42:30.406Z,1015.59
2018-01-10T03:43:30.338Z,1015.59
2018-01-10T03:44:30.630Z,1015.6
2018-01-10T03:45:30.908Z,1015.61
2018-01-10T03:46:31.018Z,1015.61
2018-01-10T03:47:30.487Z,1015.6
2018-01-10T03:48:30.863Z,1015.62
2018-01-10T03:49:31.199Z,1015.6
2018-01-10T03:50:30.705Z,1015.58
2018-01-10T03:51:31.152Z,1015.63
2018-01-10T03:52:30.603Z,1015.65
2018-01-10T03:53:31.078Z,1015.62
2018-01-10T03:54:30.431Z,1015.61
2018-01-10T03:55:30.223Z,1015.6
2018-01-10T03:56:30.537Z,1015.6
2018-01-10T03:57:30.740Z,1015.63
2018-01-10T03:58:30.569Z,1015.64
2018-01-10T03:59:30.910Z,1015.63
2018-01-10T04:00:30.602Z,1015.67
2018-01-10T04:01:30.493Z,1015.62
2018-01-10T04:02:30.717Z,1015.65
2018-01-10T04:03:30.467Z,1015.66
2018-01-10T04:04:30.770Z,1015.66
2018-01-10T04:05:30.531Z,1015.64
2018-01-10T04:06:30.816Z,1015.62
2018-01-10T04:07:30.437Z,1015.62
2018-01-10T04:08:30.521Z,1015.62
2018-01-10T04:09:30.801Z,1015.61
2018-01-10T04:10:30.450Z,1015.6
2018-01-10T04:11:30.674Z,1015.63
2018-01-10T04:12:30.516Z,1015.65
2018-01-10T04:13:30.890Z,1015.64
2018-01-10T04:14:31.019Z,1015.66
2018-01-10T04:15:30.363Z,1015.62
2018-01-10T04:16:30.231Z,1015.6
2018-01-10T04:17:30.423Z,1015.57
2018-01-10T04:18:30.555Z,1015.63
2018-01-10T04:19:30.988Z,1015.66
2018-01-10T04:20:30.235Z,1015.61
2018-01-10T04:21:30.368Z,1015.59
2018-01-10T04:22:30.917Z,1015.57
2018-01-10T04:23:30.289Z,1015.56
2018-01-10T04:24:30.671Z,1015.59
2018-01-10T04:25:30.563Z,1015.61
2018-01-10T04:26:30.824Z,1015.61
2018-01-10T04:27:31.074Z,1015.59
2018-01-10T04:28:30.537Z,1015.54
2018-01-10T04:29:31.006Z,1015.57
2018-01-10T04:30:30.839Z,1015.57
2018-01-10T04:31:31.098Z,1015.61
2018-01-10T04:32:31.012Z,1015.63
2018-01-10T04:33:30.324Z,1015.6
2018-01-10T04:34:30.440Z,1015.63
2018-01-10T04:35:30.755Z,1015.58
2018-01-10T04:36:31.047Z,1015.63
2018-01-10T04:37:30.930Z,1015.62
2018-01-10T04:38:30.692Z,1015.61
2018-01-10T04:39:31.149Z,1015.58
2018-01-10T04:40:30.789Z,1015.57
2018-01-10T04:41:30.823Z,1015.62
2018-01-10T04:42:31.174Z,1015.57
2018-01-10T04:43:30.549Z,1015.6
2018-01-10T04:44:30.875Z,1015.64
2018-01-10T04:45:30.250Z,1015.64
2018-01-10T04:46:30.521Z,1015.56
2018-01-10T04:47:30.931Z,1015.52
2018-01-10T04:48:30.747Z,1015.65
2018-01-10T04:49:30.394Z,1015.63
2018-01-10T04:50:30.444Z,1015.61
2018-01-10T04:51:30.827Z,1015.66
2018-01-10T04:52:31.152Z,1015.59
2018-01-10T04:53:31.844Z,1015.65
2018-01-10T04:54:31.225Z,1015.63
2018-01-10T04:55:31.454Z,1015.65
2018-01-10T04:56:30.788Z,1015.62
2018-01-10T04:57:31.040Z,1015.63
2018-01-10T04:58:31.167Z,1015.6
2018-01-10T04:59:30.601Z,1015.66
2018-01-10T05:00:30.819Z,1015.66
2018-01-10T05:01:30.983Z,1015.66
2018-01-10T05:02:31.307Z,1015.67
2018-01-10T05:03:30.668Z,1015.69
2018-01-10T05:04:30.948Z,1015.74
2018-01-10T05:05:31.474Z,1015.76
2018-01-10T05:06:30.883Z,1015.77
2018-01-10T05:07:30.813Z,1015.79
2018-01-10T05:08:31.107Z,1015.77
2018-01-10T05:09:31.017Z,1015.77
2018-01-10T05:10:31.230Z,1015.77
2018-01-10T05:11:31.526Z,1015.79
2018-01-10T05:12:31.054Z,1015.82
2018-01-10T05:13:31.610Z,1015.83
2018-01-10T05:14:30.862Z,1015.87
2018-01-10T05:15:30.754Z,1015.9
2018-01-10T05:16:30.930Z,1015.87
2018-01-10T05:17:30.654Z,1015.84
2018-01-10T05:18:32.197Z,1015.9
2018-01-10T05:19:30.639Z,1015.9
2018-01-10T05:20:30.949Z,1015.87
2018-01-10T05:21:31.057Z,1015.86
2018-01-10T05:22:31.567Z,1015.85
2018-01-10T05:23:31.150Z,1015.87
2018-01-10T05:24:31.624Z,1015.88
2018-01-10T05:25:31.655Z,1015.81
2018-01-10T05:26:31.275Z,1015.83
2018-01-10T05:27:31.511Z,1015.89
2018-01-10T05:28:31.188Z,1015.89
2018-01-10T05:29:31.057Z,1015.88
2018-01-10T05:30:31.498Z,1015.9
2018-01-10T05:31:31.478Z,1015.89
2018-01-10T05:32:31.907Z,1015.88
2018-01-10T05:33:31.455Z,1015.85
2018-01-10T05:34:31.687Z,1015.86
2018-01-10T05:35:32.078Z,1015.85
2018-01-10T05:36:31.763Z,1015.88
2018-01-10T05:37:31.228Z,1015.84
2018-01-10T05:38:31.691Z,1015.84
2018-01-10T05:39:31.710Z,1015.86
2018-01-10T05:40:30.974Z,1015.87
2018-01-10T05:41:31.314Z,1015.89
2018-01-10T05:42:31.657Z,1015.87
2018-01-10T05:43:31.760Z,1015.9
2018-01-10T05:44:31.778Z,1015.88
2018-01-10T05:45:31.561Z,1015.86
2018-01-10T05:46:30.976Z,1015.85
2018-01-10T05:47:31.374Z,1015.79
2018-01-10T05:48:31.798Z,1015.81
2018-01-10T05:49:31.344Z,1015.83
2018-01-10T05:50:31.865Z,1015.79
2018-01-10T05:51:32.026Z,1015.84
2018-01-10T05:52:31.111Z,1015.79
2018-01-10T05:53:31.014Z,1015.79
2018-01-10T05:54:31.448Z,1015.78
2018-01-10T05:55:31.569Z,1015.79
2018-01-10T05:56:31.182Z,1015.79
2018-01-10T05:57:30.951Z,1015.79
2018-01-10T05:58:31.357Z,1015.79
2018-01-10T05:59:30.779Z,1015.8
2018-01-10T06:00:30.912Z,1015.76
2018-01-10T06:01:31.193Z,1015.78
2018-01-10T06:02:30.880Z,1015.78
2018-01-10T06:03:31.669Z,1015.77
2018-01-10T06:04:30.908Z,1015.76
2018-01-10T06:05:31.329Z,1015.77
2018-01-10T06:06:31.617Z,1015.8
2018-01-10T06:07:31.334Z,1015.83
2018-01-10T06:08:35.134Z,1015.82
2018-01-10T06:09:31.301Z,1015.83
2018-01-10T06:10:31.652Z,1015.81
2018-01-10T06:11:31.279Z,1015.78
2018-01-10T06:12:31.135Z,1015.8
2018-01-10T06:13:31.569Z,1015.82
2018-01-10T06:14:31.201Z,1015.84
2018-01-10T06:15:31.277Z,1015.8
2018-01-10T06:16:31.649Z,1015.77
2018-01-10T06:17:31.350Z,1015.75
2018-01-10T06:18:31.496Z,1015.83
2018-01-10T06:19:31.218Z,1015.82
2018-01-10T06:20:31.628Z,1015.8
2018-01-10T06:21:31.751Z,1015.75
2018-01-10T06:22:31.433Z,1015.77
2018-01-10T06:23:30.854Z,1015.78
2018-01-10T06:24:30.991Z,1015.75
2018-01-10T06:25:31.596Z,1015.74
2018-01-10T06:26:31.284Z,1015.75
2018-01-10T06:27:30.776Z,1015.74
2018-01-10T06:28:31.409Z,1015.74
2018-01-10T06:29:31.370Z,1015.76
2018-01-10T06:30:30.872Z,1015.74
2018-01-10T06:31:31.565Z,1015.73
2018-01-10T06:32:31.064Z,1015.74
2018-01-10T06:33:31.301Z,1015.74
2018-01-10T06:34:31.804Z,1015.8
2018-01-10T06:35:31.201Z,1015.73
2018-01-10T06:36:31.657Z,1015.77
2018-01-10T06:37:31.033Z,1015.74
2018-01-10T06:38:31.515Z,1015.73
2018-01-10T06:39:31.268Z,1015.73
2018-01-10T06:40:30.621Z,1015.75
2018-01-10T06:41:31.102Z,1015.74
2018-01-10T06:42:31.603Z,1015.78
2018-01-10T06:43:31.113Z,1015.75
2018-01-10T06:44:31.356Z,1015.71
2018-01-10T06:45:30.758Z,1015.74
2018-01-10T06:46:31.435Z,1015.73
2018-01-10T06:47:30.898Z,1015.74
2018-01-10T06:48:31.562Z,1015.74
2018-01-10T06:49:31.434Z,1015.72
2018-01-10T06:50:31.109Z,1015.76
2018-01-10T06:51:31.746Z,1015.73
2018-01-10T06:52:30.877Z,1015.72
2018-01-10T06:53:31.209Z,1015.73
2018-01-10T06:54:31.663Z,1015.78
2018-01-10T06:55:31.042Z,1015.79
2018-01-10T06:56:30.947Z,1015.81
2018-01-10T06:57:31.236Z,1015.85
2018-01-10T06:58:31.474Z,1015.81
2018-01-10T06:59:31.766Z,1015.82
2018-01-10T07:00:31.436Z,1015.83
2018-01-10T07:01:31.520Z,1015.81
2018-01-10T07:02:30.853Z,1015.75
2018-01-10T07:03:31.801Z,1015.77
2018-01-10T07:04:31.107Z,1015.74
2018-01-10T07:05:31.088Z,1015.7
2018-01-10T07:06:30.993Z,1015.77
2018-01-10T07:07:31.150Z,1015.73
2018-01-10T07:08:30.983Z,1015.73
2018-01-10T07:09:31.400Z,1015.7
2018-01-10T07:10:31.535Z,1015.73
2018-01-10T07:11:31.180Z,1015.78
2018-01-10T07:12:31.483Z,1015.81
2018-01-10T07:13:31.369Z,1015.83
2018-01-10T07:14:31.880Z,1015.86
2018-01-10T07:15:31.271Z,1015.87
2018-01-10T07:16:31.438Z,1015.87
2018-01-10T07:17:31.500Z,1015.83
2018-01-10T07:18:31.472Z,1015.87
2018-01-10T07:19:31.736Z,1015.83
2018-01-10T07:20:30.913Z,1015.85
2018-01-10T07:21:31.304Z,1015.84
2018-01-10T07:22:31.217Z,1015.84
2018-01-10T07:23:30.937Z,1015.85
2018-01-10T07:24:30.249Z,1015.83
2018-01-10T07:25:30.917Z,1015.87
2018-01-10T07:26:30.414Z,1015.89
2018-01-10T07:27:30.529Z,1015.87
2018-01-10T07:28:30.479Z,1015.82
2018-01-10T07:29:30.919Z,1015.85
2018-01-10T07:30:30.272Z,1015.85
2018-01-10T07:31:30.666Z,1015.82
2018-01-10T07:32:30.593Z,1015.84
2018-01-10T07:33:31.119Z,1015.86
2018-01-10T07:34:30.507Z,1015.87
2018-01-10T07:35:30.690Z,1015.85
2018-01-10T07:36:30.174Z,1015.86
2018-01-10T07:37:30.161Z,1015.84
2018-01-10T07:38:30.376Z,1015.84
2018-01-10T07:39:30.830Z,1015.87
2018-01-10T07:40:30.403Z,1015.85
2018-01-10T07:41:30.760Z,1015.86
2018-01-10T07:42:31.082Z,1015.84
2018-01-10T07:43:30.276Z,1015.8
2018-01-10T07:44:30.394Z,1015.86
2018-01-10T07:45:30.409Z,1015.81
2018-01-10T07:46:30.482Z,1015.79
2018-01-10T07:47:31.072Z,1015.78
2018-01-10T07:48:30.353Z,1015.81
2018-01-10T07:49:30.424Z,1015.83
2018-01-10T07:50:30.571Z,1015.78
2018-01-10T07:51:30.795Z,1015.78
2018-01-10T07:52:30.930Z,1015.84
2018-01-10T07:53:30.644Z,1015.83
2018-01-10T07:54:30.682Z,1015.81
2018-01-10T07:55:31.141Z,1015.83
2018-01-10T07:56:30.935Z,1015.8
2018-01-10T07:57:31.353Z,1015.84
2018-01-10T07:58:30.901Z,1015.84
2018-01-10T07:59:30.864Z,1015.8
2018-01-10T08:00:31.090Z,1015.82
2018-01-10T08:01:31.316Z,1015.82
2018-01-10T08:02:30.767Z,1015.81
2018-01-10T08:03:31.050Z,1015.81
2018-01-10T08:04:31.221Z,1015.8
2018-01-10T08:05:30.584Z,1015.78
2018-01-10T08:06:30.691Z,1015.79
2018-01-10T08:07:30.802Z,1015.76
2018-01-10T08:08:30.479Z,1015.83
2018-01-10T08:09:31.497Z,1015.77
2018-01-10T08:10:31.361Z,1015.78
2018-01-10T08:11:30.668Z,1015.81
2018-01-10T08:12:31.102Z,1015.81
2018-01-10T08:13:31.565Z,1015.83
2018-01-10T08:14:30.963Z,1015.79
2018-01-10T08:15:31.342Z,1015.79
2018-01-10T08:16:30.989Z,1015.78
2018-01-10T08:17:31.064Z,1015.78
2018-01-10T08:18:30.752Z,1015.8
2018-01-10T08:19:31.232Z,1015.8
2018-01-10T08:20:31.494Z,1015.79
2018-01-10T08:21:30.681Z,1015.8
2018-01-10T08:22:30.702Z,1015.77
2018-01-10T08:23:30.947Z,1015.78
2018-01-10T08:24:31.806Z,1015.81
2018-01-10T08:25:31.333Z,1015.77
2018-01-10T08:26:31.586Z,1015.81
2018-01-10T08:27:30.953Z,1015.83
2018-01-10T08:28:31.036Z,1015.81
2018-01-10T08:29:31.348Z,1015.81
2018-01-10T08:30:31.735Z,1015.76
2018-01-10T08:31:31.081Z,1015.8
2018-01-10T08:32:31.612Z,1015.8
2018-01-10T08:33:30.867Z,1015.82
2018-01-10T08:34:30.987Z,1015.81
2018-01-10T08:35:31.774Z,1015.78
2018-01-10T08:36:31.197Z,1015.78
2018-01-10T08:37:31.488Z,1015.76
2018-01-10T08:38:31.681Z,1015.76
2018-01-10T08:39:31.034Z,1015.71
2018-01-10T08:40:31.256Z,1015.71
2018-01-10T08:41:31.636Z,1015.7
2018-01-10T08:42:31.321Z,1015.71
2018-01-10T08:43:31.087Z,1015.69
2018-01-10T08:44:31.260Z,1015.67
2018-01-10T08:45:31.203Z,1015.65
2018-01-10T08:46:31.417Z,1015.67
2018-01-10T08:47:30.840Z,1015.64
2018-01-10T08:48:30.968Z,1015.63
2018-01-10T08:49:31.847Z,1015.65
2018-01-10T08:50:30.994Z,1015.65
2018-01-10T08:51:31.913Z,1015.66
2018-01-10T08:52:31.368Z,1015.65
2018-01-10T08:53:31.158Z,1015.64
2018-01-10T08:54:30.640Z,1015.65
2018-01-10T08:55:30.458Z,1015.66
2018-01-10T08:56:30.025Z,1015.64
2018-01-10T08:57:30.055Z,1015.62
2018-01-10T08:58:30.361Z,1015.62
2018-01-10T08:59:30.812Z,1015.59
2018-01-10T09:00:30.230Z,1015.59
2018-01-10T09:01:30.322Z,1015.59
2018-01-10T09:02:30.487Z,1015.65
2018-01-10T09:03:30.882Z,1015.59
2018-01-10T09:04:30.719Z,1015.58
2018-01-10T09:05:31.040Z,1015.58
2018-01-10T09:06:30.478Z,1015.58
2018-01-10T09:07:31.026Z,1015.54
2018-01-10T09:08:30.660Z,1015.58
2018-01-10T09:09:30.818Z,1015.55
2018-01-10T09:10:30.990Z,1015.56
2018-01-10T09:11:30.436Z,1015.55
2018-01-10T09:12:30.666Z,1015.58
2018-01-10T09:13:30.699Z,1015.55
2018-01-10T09:14:30.869Z,1015.54
2018-01-10T09:15:30.167Z,1015.53
2018-01-10T09:16:30.314Z,1015.58
2018-01-10T09:17:30.491Z,1015.58
2018-01-10T09:18:30.907Z,1015.57
2018-01-10T09:19:30.668Z,1015.59
2018-01-10T09:20:30.970Z,1015.6
2018-01-10T09:21:30.668Z,1015.6
2018-01-10T09:22:30.132Z,1015.62
2018-01-10T09:23:30.285Z,1015.63
2018-01-10T09:24:30.492Z,1015.57
2018-01-10T09:25:30.680Z,1015.61
2018-01-10T09:26:31.246Z,1015.61
2018-01-10T09:27:30.635Z,1015.56
2018-01-10T09:28:30.987Z,1015.59
2018-01-10T09:29:31.044Z,1015.59
2018-01-10T09:30:31.285Z,1015.57
2018-01-10T09:31:31.178Z,1015.58
2018-01-10T09:32:31.353Z,1015.63
2018-01-10T09:33:30.731Z,1015.6
2018-01-10T09:34:30.664Z,1015.58
2018-01-10T09:35:30.716Z,1015.56
2018-01-10T09:36:30.568Z,1015.57
2018-01-10T09:37:31.404Z,1015.56
2018-01-10T09:38:31.133Z,1015.59
2018-01-10T09:39:31.477Z,1015.56
2018-01-10T09:40:30.772Z,1015.55
2018-01-10T09:41:31.011Z,1015.54
2018-01-10T09:42:30.958Z,1015.58
2018-01-10T09:43:31.360Z,1015.58
2018-01-10T09:44:31.092Z,1015.55
2018-01-10T09:45:31.420Z,1015.5
2018-01-10T09:46:30.769Z,1015.53
2018-01-10T09:47:31.013Z,1015.5
2018-01-10T09:48:31.142Z,1015.46
2018-01-10T09:49:31.255Z,1015.49
2018-01-10T09:50:30.915Z,1015.43
2018-01-10T09:51:31.100Z,1015.44
2018-01-10T09:52:30.932Z,1015.47
2018-01-10T09:53:31.143Z,1015.42
2018-01-10T09:54:30.752Z,1015.43
2018-01-10T09:55:31.330Z,1015.47
2018-01-10T09:56:31.567Z,1015.45
2018-01-10T09:57:31.500Z,1015.43
2018-01-10T09:58:30.857Z,1015.39
2018-01-10T09:59:31.113Z,1015.42
2018-01-10T10:00:31.508Z,1015.41
2018-01-10T10:01:30.912Z,1015.43
2018-01-10T10:02:31.253Z,1015.41
2018-01-10T10:03:31.126Z,1015.4
2018-01-10T10:04:31.372Z,1015.42
2018-01-10T10:05:31.351Z,1015.42
2018-01-10T10:06:31.512Z,1015.36
2018-01-10T10:07:31.301Z,1015.39
2018-01-10T10:08:31.525Z,1015.35
2018-01-10T10:09:31.059Z,1015.39
2018-01-10T10:10:31.601Z,1015.41
2018-01-10T10:11:30.788Z,1015.37
2018-01-10T10:12:31.474Z,1015.38
2018-01-10T10:13:30.906Z,1015.37
2018-01-10T10:14:31.220Z,1015.36
2018-01-10T10:15:31.238Z,1015.32
2018-01-10T10:16:31.542Z,1015.34
2018-01-10T10:17:31.392Z,1015.31
2018-01-10T10:18:31.168Z,1015.27
2018-01-10T10:19:31.419Z,1015.29
2018-01-10T10:20:31.043Z,1015.28
2018-01-10T10:21:31.843Z,1015.27
2018-01-10T10:22:31.314Z,1015.26
2018-01-10T10:23:31.139Z,1015.22
2018-01-10T10:24:30.942Z,1015.26
2018-01-10T10:25:31.306Z,1015.2
2018-01-10T10:26:31.380Z,1015.16
2018-01-10T10:27:31.810Z,1015.16
2018-01-10T10:28:31.138Z,1015.13
2018-01-10T10:29:31.533Z,1015.13
2018-01-10T10:30:30.897Z,1015.12
2018-01-10T10:31:31.196Z,1015.1
2018-01-10T10:32:31.689Z,1015.08
2018-01-10T10:33:31.105Z,1015.04
2018-01-10T10:34:30.858Z,1015.02
2018-01-10T10:35:31.101Z,1015.07
2018-01-10T10:36:31.767Z,1015.07
2018-01-10T10:37:31.048Z,1015.02
2018-01-10T10:38:31.508Z,1015.03
2018-01-10T10:39:31.739Z,1015.05
2018-01-10T10:40:31.065Z,1015.02
2018-01-10T10:41:31.124Z,1015
2018-01-10T10:42:31.551Z,1014.97
2018-01-10T10:43:31.980Z,1014.96
2018-01-10T10:44:31.456Z,1014.96
2018-01-10T10:45:30.902Z,1014.91
2018-01-10T10:46:31.315Z,1014.92
2018-01-10T10:47:31.536Z,1014.86
2018-01-10T10:48:31.011Z,1014.91
2018-01-10T10:49:31.407Z,1014.83
2018-01-10T10:50:31.556Z,1014.81
2018-01-10T10:51:31.025Z,1014.82
2018-01-10T10:52:31.070Z,1014.81
2018-01-10T10:53:31.381Z,1014.79
2018-01-10T10:54:31.342Z,1014.79
2018-01-10T10:55:30.673Z,1014.76
2018-01-10T10:56:31.071Z,1014.74
2018-01-10T10:57:31.277Z,1014.72
2018-01-10T10:58:30.949Z,1014.66
2018-01-10T10:59:31.171Z,1014.66
2018-01-10T11:00:30.332Z,1014.69
2018-01-10T11:01:30.520Z,1014.67
2018-01-10T11:02:31.045Z,1014.65
2018-01-10T11:03:30.940Z,1014.66
2018-01-10T11:04:30.872Z,1014.63
2018-01-10T11:05:31.031Z,1014.61
2018-01-10T11:06:30.374Z,1014.59
2018-01-10T11:07:30.506Z,1014.54
2018-01-10T11:08:30.804Z,1014.5
2018-01-10T11:09:31.010Z,1014.49
2018-01-10T11:10:31.156Z,1014.46
2018-01-10T11:11:30.498Z,1014.44
2018-01-10T11:12:30.362Z,1014.44
2018-01-10T11:13:30.809Z,1014.39
2018-01-10T11:14:31.286Z,1014.41
2018-01-10T11:15:31.129Z,1014.4
2018-01-10T11:16:31.606Z,1014.39
2018-01-10T11:17:30.242Z,1014.42
2018-01-10T11:18:30.466Z,1014.41
2018-01-10T11:19:30.614Z,1014.38
2018-01-10T11:20:30.904Z,1014.38
2018-01-10T11:21:30.820Z,1014.4
2018-01-10T11:22:31.226Z,1014.37
2018-01-10T11:23:30.413Z,1014.37
2018-01-10T11:24:30.641Z,1014.37
2018-01-10T11:25:32.098Z,1014.41
2018-01-10T11:26:31.849Z,1014.38
2018-01-10T11:27:30.472Z,1014.31
2018-01-10T11:28:30.631Z,1014.33
2018-01-10T11:29:30.923Z,1014.32
2018-01-10T11:30:31.163Z,1014.35
2018-01-10T11:31:31.367Z,1014.34
2018-01-10T11:32:31.191Z,1014.33
2018-01-10T11:33:30.714Z,1014.3
2018-01-10T11:34:30.847Z,1014.29
2018-01-10T11:35:30.991Z,1014.27
2018-01-10T11:36:30.842Z,1014.23
2018-01-10T11:37:31.245Z,1014.24
2018-01-10T11:38:30.809Z,1014.24
2018-01-10T11:39:31.027Z,1014.21
2018-01-10T11:40:31.305Z,1014.2
2018-01-10T11:41:31.263Z,1014.16
2018-01-10T11:42:30.552Z,1014.1
2018-01-10T11:43:31.018Z,1014.13
2018-01-10T11:44:31.225Z,1014.1
2018-01-10T11:45:30.850Z,1014.05
2018-01-10T11:46:31.045Z,1014.02
2018-01-10T11:47:31.336Z,1014.04
2018-01-10T11:48:30.713Z,1014.01
2018-01-10T11:49:31.248Z,1013.99
2018-01-10T11:50:30.621Z,1013.93
2018-01-10T11:51:30.860Z,1013.9
2018-01-10T11:52:31.046Z,1013.88
2018-01-10T11:53:31.353Z,1013.9
2018-01-10T11:54:30.573Z,1013.86
2018-01-10T11:55:31.363Z,1013.85
2018-01-10T11:56:30.868Z,1013.85
2018-01-10T11:57:32.388Z,1013.78
2018-01-10T11:58:30.849Z,1013.83
2018-01-10T11:59:30.949Z,1013.78
2018-01-10T12:00:31.432Z,1013.77
2018-01-10T12:01:31.768Z,1013.77
2018-01-10T12:02:31.250Z,1013.73
2018-01-10T12:03:31.781Z,1013.73
2018-01-10T12:04:31.143Z,1013.71
2018-01-10T12:05:30.952Z,1013.72
2018-01-10T12:06:31.261Z,1013.69
2018-01-10T12:07:30.914Z,1013.58
2018-01-10T12:08:31.616Z,1013.63
2018-01-10T12:09:30.779Z,1013.59
2018-01-10T12:10:30.819Z,1013.56
2018-01-10T12:11:31.430Z,1013.54
2018-01-10T12:12:31.663Z,1013.56